sensor_id;sensor_type;location;lat;lon;timestamp;P1;durP1;ratioP1;P2;durP2;ratioP2
66603;SDS011;53460;39.612;8.822;2023-07-29T00:01:20;7.55;;;2.15;;
66603;SDS011;53460;39.612;8.822;2023-07-29T00:03:46;5.68;;;2.13;;
66603;SDS011;53460;39.612;8.822;2023-07-29T00:06:11;7.35;;;2.88;;
66603;SDS011;53460;39.612;8.822;2023-07-29T00:08:37;4.22;;;1.80;;
66603;SDS011;53460;39.612;8.822;2023-07-29T00:11:02;8.10;;;2.40;;
66603;SDS011;53460;39.612;8.822;2023-07-29T00:13:28;5.22;;;2.38;;
66603;SDS011;53460;39.612;8.822;2023-07-29T00:15:54;4.95;;;2.10;;
66603;SDS011;53460;39.612;8.822;2023-07-29T00:18:20;5.75;;;2.20;;
66603;SDS011;53460;39.612;8.822;2023-07-29T00:20:46;7.13;;;2.33;;
66603;SDS011;53460;39.612;8.822;2023-07-29T00:23:11;6.43;;;2.28;;
66603;SDS011;53460;39.612;8.822;2023-07-29T00:25:37;7.40;;;1.90;;
66603;SDS011;53460;39.612;8.822;2023-07-29T00:28:02;8.27;;;2.67;;
66603;SDS011;53460;39.612;8.822;2023-07-29T00:30:28;6.93;;;2.20;;
66603;SDS011;53460;39.612;8.822;2023-07-29T00:32:53;5.60;;;2.20;;
66603;SDS011;53460;39.612;8.822;2023-07-29T00:35:19;8.90;;;2.50;;
66603;SDS011;53460;39.612;8.822;2023-07-29T00:37:44;7.40;;;2.83;;
66603;SDS011;53460;39.612;8.822;2023-07-29T00:40:19;8.35;;;2.40;;
66603;SDS011;53460;39.612;8.822;2023-07-29T00:42:46;7.25;;;2.10;;
66603;SDS011;53460;39.612;8.822;2023-07-29T00:45:12;7.10;;;2.35;;
66603;SDS011;53460;39.612;8.822;2023-07-29T00:47:38;8.27;;;2.30;;
66603;SDS011;53460;39.612;8.822;2023-07-29T00:50:04;5.65;;;1.98;;
66603;SDS011;53460;39.612;8.822;2023-07-29T00:52:30;6.00;;;2.60;;
66603;SDS011;53460;39.612;8.822;2023-07-29T00:54:56;8.77;;;2.60;;
66603;SDS011;53460;39.612;8.822;2023-07-29T00:57:21;5.85;;;2.30;;
66603;SDS011;53460;39.612;8.822;2023-07-29T00:59:47;10.90;;;2.90;;
66603;SDS011;53460;39.612;8.822;2023-07-29T01:02:13;8.63;;;2.30;;
66603;SDS011;53460;39.612;8.822;2023-07-29T01:04:38;7.05;;;2.90;;
66603;SDS011;53460;39.612;8.822;2023-07-29T01:07:11;10.32;;;2.88;;
66603;SDS011;53460;39.612;8.822;2023-07-29T01:12:47;5.20;;;2.33;;
66603;SDS011;53460;39.612;8.822;2023-07-29T01:15:16;8.18;;;2.60;;
66603;SDS011;53460;39.612;8.822;2023-07-29T01:17:43;7.88;;;2.30;;
66603;SDS011;53460;39.612;8.822;2023-07-29T01:20:13;6.43;;;2.30;;
66603;SDS011;53460;39.612;8.822;2023-07-29T01:22:39;8.45;;;2.38;;
66603;SDS011;53460;39.612;8.822;2023-07-29T01:25:05;9.57;;;3.63;;
66603;SDS011;53460;39.612;8.822;2023-07-29T01:27:30;7.88;;;3.25;;
66603;SDS011;53460;39.612;8.822;2023-07-29T01:29:56;9.98;;;3.00;;
66603;SDS011;53460;39.612;8.822;2023-07-29T01:34:53;7.25;;;2.30;;
66603;SDS011;53460;39.612;8.822;2023-07-29T01:37:22;5.50;;;2.22;;
66603;SDS011;53460;39.612;8.822;2023-07-29T01:39:50;7.32;;;3.10;;
66603;SDS011;53460;39.612;8.822;2023-07-29T01:42:17;12.45;;;2.90;;
66603;SDS011;53460;39.612;8.822;2023-07-29T01:44:43;8.88;;;2.50;;
66603;SDS011;53460;39.612;8.822;2023-07-29T01:47:08;9.05;;;2.70;;
66603;SDS011;53460;39.612;8.822;2023-07-29T01:49:35;8.45;;;2.78;;
66603;SDS011;53460;39.612;8.822;2023-07-29T01:52:01;4.57;;;2.38;;
66603;SDS011;53460;39.612;8.822;2023-07-29T01:54:26;6.30;;;2.40;;
66603;SDS011;53460;39.612;8.822;2023-07-29T01:56:52;10.38;;;3.63;;
66603;SDS011;53460;39.612;8.822;2023-07-29T01:59:17;8.20;;;2.92;;
66603;SDS011;53460;39.612;8.822;2023-07-29T02:01:43;8.63;;;2.63;;
66603;SDS011;53460;39.612;8.822;2023-07-29T02:04:09;9.07;;;2.60;;
66603;SDS011;53460;39.612;8.822;2023-07-29T02:06:34;7.97;;;2.80;;
66603;SDS011;53460;39.612;8.822;2023-07-29T02:09:00;9.88;;;2.85;;
66603;SDS011;53460;39.612;8.822;2023-07-29T02:11:25;8.38;;;3.10;;
66603;SDS011;53460;39.612;8.822;2023-07-29T02:13:53;10.82;;;2.92;;
66603;SDS011;53460;39.612;8.822;2023-07-29T02:16:19;9.38;;;2.80;;
66603;SDS011;53460;39.612;8.822;2023-07-29T02:18:45;12.18;;;2.75;;
66603;SDS011;53460;39.612;8.822;2023-07-29T02:21:10;9.85;;;2.53;;
66603;SDS011;53460;39.612;8.822;2023-07-29T02:23:36;7.93;;;3.05;;
66603;SDS011;53460;39.612;8.822;2023-07-29T02:26:02;9.13;;;2.88;;
66603;SDS011;53460;39.612;8.822;2023-07-29T02:28:27;9.25;;;3.00;;
66603;SDS011;53460;39.612;8.822;2023-07-29T02:33:54;6.57;;;2.50;;
66603;SDS011;53460;39.612;8.822;2023-07-29T02:36:20;6.82;;;2.60;;
66603;SDS011;53460;39.612;8.822;2023-07-29T02:38:46;5.68;;;2.00;;
66603;SDS011;53460;39.612;8.822;2023-07-29T02:41:11;7.65;;;2.35;;
66603;SDS011;53460;39.612;8.822;2023-07-29T02:43:38;8.82;;;2.72;;
66603;SDS011;53460;39.612;8.822;2023-07-29T02:46:04;6.55;;;2.38;;
66603;SDS011;53460;39.612;8.822;2023-07-29T02:48:29;11.40;;;3.17;;
66603;SDS011;53460;39.612;8.822;2023-07-29T02:50:55;5.82;;;2.63;;
66603;SDS011;53460;39.612;8.822;2023-07-29T02:53:22;5.75;;;2.42;;
66603;SDS011;53460;39.612;8.822;2023-07-29T02:55:47;7.10;;;2.70;;
66603;SDS011;53460;39.612;8.822;2023-07-29T02:58:13;6.10;;;2.40;;
66603;SDS011;53460;39.612;8.822;2023-07-29T03:00:38;8.73;;;2.70;;
66603;SDS011;53460;39.612;8.822;2023-07-29T03:03:07;10.85;;;2.60;;
66603;SDS011;53460;39.612;8.822;2023-07-29T03:05:32;7.00;;;2.50;;
66603;SDS011;53460;39.612;8.822;2023-07-29T03:07:58;7.32;;;2.50;;
66603;SDS011;53460;39.612;8.822;2023-07-29T03:10:24;6.55;;;2.78;;
66603;SDS011;53460;39.612;8.822;2023-07-29T03:12:50;12.32;;;2.90;;
66603;SDS011;53460;39.612;8.822;2023-07-29T03:15:16;6.32;;;2.47;;
66603;SDS011;53460;39.612;8.822;2023-07-29T03:17:41;8.00;;;2.83;;
66603;SDS011;53460;39.612;8.822;2023-07-29T03:20:08;9.65;;;3.00;;
66603;SDS011;53460;39.612;8.822;2023-07-29T03:22:33;6.85;;;2.80;;
66603;SDS011;53460;39.612;8.822;2023-07-29T03:24:59;3.78;;;2.22;;
66603;SDS011;53460;39.612;8.822;2023-07-29T03:27:25;6.22;;;2.90;;
66603;SDS011;53460;39.612;8.822;2023-07-29T03:29:51;8.52;;;2.65;;
66603;SDS011;53460;39.612;8.822;2023-07-29T03:32:17;11.63;;;3.78;;
66603;SDS011;53460;39.612;8.822;2023-07-29T03:34:43;10.93;;;3.28;;
66603;SDS011;53460;39.612;8.822;2023-07-29T03:37:09;8.95;;;3.13;;
66603;SDS011;53460;39.612;8.822;2023-07-29T03:39:35;8.88;;;3.03;;
66603;SDS011;53460;39.612;8.822;2023-07-29T03:42:00;8.85;;;3.13;;
66603;SDS011;53460;39.612;8.822;2023-07-29T03:44:26;11.85;;;3.17;;
66603;SDS011;53460;39.612;8.822;2023-07-29T03:46:51;14.45;;;3.15;;
66603;SDS011;53460;39.612;8.822;2023-07-29T03:49:17;9.77;;;2.40;;
66603;SDS011;53460;39.612;8.822;2023-07-29T03:51:42;8.05;;;2.55;;
66603;SDS011;53460;39.612;8.822;2023-07-29T03:54:08;6.72;;;2.63;;
66603;SDS011;53460;39.612;8.822;2023-07-29T03:56:33;8.43;;;2.83;;
66603;SDS011;53460;39.612;8.822;2023-07-29T03:59:04;7.57;;;2.72;;
66603;SDS011;53460;39.612;8.822;2023-07-29T04:01:29;8.57;;;2.80;;
66603;SDS011;53460;39.612;8.822;2023-07-29T04:03:55;13.38;;;3.05;;
66603;SDS011;53460;39.612;8.822;2023-07-29T04:06:20;7.60;;;2.33;;
66603;SDS011;53460;39.612;8.822;2023-07-29T04:08:46;6.93;;;2.65;;
66603;SDS011;53460;39.612;8.822;2023-07-29T04:11:11;7.05;;;2.47;;
66603;SDS011;53460;39.612;8.822;2023-07-29T04:13:37;8.85;;;2.60;;
66603;SDS011;53460;39.612;8.822;2023-07-29T04:16:03;5.95;;;2.53;;
66603;SDS011;53460;39.612;8.822;2023-07-29T04:18:29;10.90;;;2.42;;
66603;SDS011;53460;39.612;8.822;2023-07-29T04:20:54;8.40;;;2.63;;
66603;SDS011;53460;39.612;8.822;2023-07-29T04:23:20;6.10;;;2.65;;
66603;SDS011;53460;39.612;8.822;2023-07-29T04:25:45;8.00;;;2.53;;
66603;SDS011;53460;39.612;8.822;2023-07-29T04:28:11;5.38;;;2.20;;
66603;SDS011;53460;39.612;8.822;2023-07-29T04:30:36;5.65;;;2.78;;
66603;SDS011;53460;39.612;8.822;2023-07-29T04:33:02;8.18;;;2.22;;
66603;SDS011;53460;39.612;8.822;2023-07-29T04:35:28;12.10;;;3.00;;
66603;SDS011;53460;39.612;8.822;2023-07-29T04:37:53;7.38;;;2.72;;
66603;SDS011;53460;39.612;8.822;2023-07-29T04:40:19;4.97;;;2.58;;
66603;SDS011;53460;39.612;8.822;2023-07-29T04:42:44;8.98;;;2.83;;
66603;SDS011;53460;39.612;8.822;2023-07-29T04:45:10;9.10;;;2.42;;
66603;SDS011;53460;39.612;8.822;2023-07-29T04:47:35;10.38;;;3.55;;
66603;SDS011;53460;39.612;8.822;2023-07-29T04:50:01;8.10;;;2.10;;
66603;SDS011;53460;39.612;8.822;2023-07-29T04:52:26;9.27;;;2.65;;
66603;SDS011;53460;39.612;8.822;2023-07-29T04:54:52;9.32;;;2.40;;
66603;SDS011;53460;39.612;8.822;2023-07-29T04:57:17;11.07;;;2.80;;
66603;SDS011;53460;39.612;8.822;2023-07-29T04:59:43;5.88;;;2.55;;
66603;SDS011;53460;39.612;8.822;2023-07-29T05:02:08;10.98;;;2.70;;
66603;SDS011;53460;39.612;8.822;2023-07-29T05:04:34;8.63;;;2.90;;
66603;SDS011;53460;39.612;8.822;2023-07-29T05:06:59;10.23;;;2.60;;
66603;SDS011;53460;39.612;8.822;2023-07-29T05:09:25;9.65;;;2.80;;
66603;SDS011;53460;39.612;8.822;2023-07-29T05:11:51;9.95;;;2.53;;
66603;SDS011;53460;39.612;8.822;2023-07-29T05:14:17;10.15;;;2.70;;
66603;SDS011;53460;39.612;8.822;2023-07-29T05:16:43;11.35;;;3.30;;
66603;SDS011;53460;39.612;8.822;2023-07-29T05:19:08;10.32;;;2.85;;
66603;SDS011;53460;39.612;8.822;2023-07-29T05:21:34;7.60;;;2.35;;
66603;SDS011;53460;39.612;8.822;2023-07-29T05:24:00;8.52;;;2.70;;
66603;SDS011;53460;39.612;8.822;2023-07-29T05:26:25;8.18;;;2.72;;
66603;SDS011;53460;39.612;8.822;2023-07-29T05:28:51;10.32;;;2.92;;
66603;SDS011;53460;39.612;8.822;2023-07-29T05:31:17;11.27;;;3.30;;
66603;SDS011;53460;39.612;8.822;2023-07-29T05:33:43;11.75;;;2.80;;
66603;SDS011;53460;39.612;8.822;2023-07-29T05:36:09;10.95;;;3.60;;
66603;SDS011;53460;39.612;8.822;2023-07-29T05:38:35;10.65;;;3.22;;
66603;SDS011;53460;39.612;8.822;2023-07-29T05:41:00;12.07;;;3.70;;
66603;SDS011;53460;39.612;8.822;2023-07-29T05:43:26;14.63;;;3.80;;
66603;SDS011;53460;39.612;8.822;2023-07-29T05:45:52;13.50;;;3.38;;
66603;SDS011;53460;39.612;8.822;2023-07-29T05:48:19;11.43;;;4.03;;
66603;SDS011;53460;39.612;8.822;2023-07-29T05:50:44;16.73;;;3.88;;
66603;SDS011;53460;39.612;8.822;2023-07-29T05:53:10;14.40;;;4.57;;
66603;SDS011;53460;39.612;8.822;2023-07-29T05:55:35;13.15;;;4.30;;
66603;SDS011;53460;39.612;8.822;2023-07-29T05:58:02;14.27;;;4.38;;
66603;SDS011;53460;39.612;8.822;2023-07-29T06:00:27;13.80;;;3.97;;
66603;SDS011;53460;39.612;8.822;2023-07-29T06:02:53;18.25;;;4.35;;
66603;SDS011;53460;39.612;8.822;2023-07-29T06:05:21;14.20;;;4.80;;
66603;SDS011;53460;39.612;8.822;2023-07-29T06:07:46;11.52;;;3.95;;
66603;SDS011;53460;39.612;8.822;2023-07-29T06:10:14;13.70;;;4.05;;
66603;SDS011;53460;39.612;8.822;2023-07-29T06:12:43;12.15;;;4.32;;
66603;SDS011;53460;39.612;8.822;2023-07-29T06:15:08;15.13;;;5.15;;
66603;SDS011;53460;39.612;8.822;2023-07-29T06:17:34;15.65;;;5.30;;
66603;SDS011;53460;39.612;8.822;2023-07-29T06:19:59;11.93;;;4.03;;
66603;SDS011;53460;39.612;8.822;2023-07-29T06:22:25;14.50;;;3.72;;
66603;SDS011;53460;39.612;8.822;2023-07-29T06:24:51;17.30;;;4.95;;
66603;SDS011;53460;39.612;8.822;2023-07-29T06:27:16;14.20;;;4.20;;
66603;SDS011;53460;39.612;8.822;2023-07-29T06:29:42;11.32;;;4.28;;
66603;SDS011;53460;39.612;8.822;2023-07-29T06:32:07;13.55;;;3.83;;
66603;SDS011;53460;39.612;8.822;2023-07-29T06:34:33;11.90;;;4.20;;
66603;SDS011;53460;39.612;8.822;2023-07-29T06:36:58;11.15;;;4.47;;
66603;SDS011;53460;39.612;8.822;2023-07-29T06:39:23;8.70;;;3.63;;
66603;SDS011;53460;39.612;8.822;2023-07-29T06:41:49;9.88;;;3.30;;
66603;SDS011;53460;39.612;8.822;2023-07-29T06:44:17;11.52;;;4.00;;
66603;SDS011;53460;39.612;8.822;2023-07-29T06:46:42;11.30;;;3.40;;
66603;SDS011;53460;39.612;8.822;2023-07-29T06:49:08;8.90;;;3.00;;
66603;SDS011;53460;39.612;8.822;2023-07-29T06:51:33;11.55;;;3.05;;
66603;SDS011;53460;39.612;8.822;2023-07-29T06:54:01;9.27;;;2.42;;
66603;SDS011;53460;39.612;8.822;2023-07-29T06:56:26;6.93;;;2.58;;
66603;SDS011;53460;39.612;8.822;2023-07-29T06:58:52;11.18;;;2.70;;
66603;SDS011;53460;39.612;8.822;2023-07-29T07:01:17;8.20;;;1.80;;
66603;SDS011;53460;39.612;8.822;2023-07-29T07:03:43;53.00;;;4.88;;
66603;SDS011;53460;39.612;8.822;2023-07-29T07:06:08;16.17;;;2.67;;
66603;SDS011;53460;39.612;8.822;2023-07-29T07:08:34;5.72;;;2.55;;
66603;SDS011;53460;39.612;8.822;2023-07-29T07:10:59;6.65;;;2.17;;
66603;SDS011;53460;39.612;8.822;2023-07-29T07:13:25;8.50;;;2.10;;
66603;SDS011;53460;39.612;8.822;2023-07-29T07:15:50;57.75;;;5.90;;
66603;SDS011;53460;39.612;8.822;2023-07-29T07:18:16;6.20;;;1.80;;
66603;SDS011;53460;39.612;8.822;2023-07-29T07:20:41;5.95;;;1.80;;
66603;SDS011;53460;39.612;8.822;2023-07-29T07:23:07;11.65;;;2.38;;
66603;SDS011;53460;39.612;8.822;2023-07-29T07:25:36;8.73;;;2.75;;
66603;SDS011;53460;39.612;8.822;2023-07-29T07:28:01;4.28;;;1.50;;
66603;SDS011;53460;39.612;8.822;2023-07-29T07:30:27;10.77;;;2.20;;
66603;SDS011;53460;39.612;8.822;2023-07-29T07:32:52;14.57;;;2.70;;
66603;SDS011;53460;39.612;8.822;2023-07-29T07:35:18;6.38;;;2.05;;
66603;SDS011;53460;39.612;8.822;2023-07-29T07:37:44;8.35;;;2.00;;
66603;SDS011;53460;39.612;8.822;2023-07-29T07:40:09;4.18;;;1.65;;
66603;SDS011;53460;39.612;8.822;2023-07-29T07:42:35;4.30;;;1.70;;
66603;SDS011;53460;39.612;8.822;2023-07-29T07:45:00;3.00;;;1.45;;
66603;SDS011;53460;39.612;8.822;2023-07-29T07:47:26;4.25;;;2.00;;
66603;SDS011;53460;39.612;8.822;2023-07-29T07:49:51;3.22;;;1.70;;
66603;SDS011;53460;39.612;8.822;2023-07-29T07:52:17;2.95;;;1.58;;
66603;SDS011;53460;39.612;8.822;2023-07-29T07:54:42;3.55;;;1.70;;
66603;SDS011;53460;39.612;8.822;2023-07-29T07:57:08;4.68;;;1.92;;
66603;SDS011;53460;39.612;8.822;2023-07-29T07:59:33;7.05;;;1.70;;
66603;SDS011;53460;39.612;8.822;2023-07-29T08:01:59;4.85;;;1.80;;
66603;SDS011;53460;39.612;8.822;2023-07-29T08:04:24;4.97;;;1.77;;
66603;SDS011;53460;39.612;8.822;2023-07-29T08:06:49;6.43;;;2.28;;
66603;SDS011;53460;39.612;8.822;2023-07-29T08:09:15;5.43;;;1.60;;
66603;SDS011;53460;39.612;8.822;2023-07-29T08:11:40;7.05;;;2.10;;
66603;SDS011;53460;39.612;8.822;2023-07-29T08:14:06;8.77;;;2.00;;
66603;SDS011;53460;39.612;8.822;2023-07-29T08:16:31;6.53;;;1.92;;
66603;SDS011;53460;39.612;8.822;2023-07-29T08:18:57;5.53;;;2.28;;
66603;SDS011;53460;39.612;8.822;2023-07-29T08:21:22;2.85;;;2.00;;
66603;SDS011;53460;39.612;8.822;2023-07-29T08:23:48;4.50;;;2.10;;
66603;SDS011;53460;39.612;8.822;2023-07-29T08:26:13;9.70;;;2.17;;
66603;SDS011;53460;39.612;8.822;2023-07-29T08:28:39;7.68;;;1.80;;
66603;SDS011;53460;39.612;8.822;2023-07-29T08:31:04;7.93;;;1.88;;
66603;SDS011;53460;39.612;8.822;2023-07-29T08:33:30;5.10;;;2.20;;
66603;SDS011;53460;39.612;8.822;2023-07-29T08:35:57;4.20;;;2.00;;
66603;SDS011;53460;39.612;8.822;2023-07-29T08:38:22;4.10;;;1.60;;
66603;SDS011;53460;39.612;8.822;2023-07-29T08:43:13;2.88;;;1.80;;
66603;SDS011;53460;39.612;8.822;2023-07-29T08:45:39;5.85;;;1.70;;
66603;SDS011;53460;39.612;8.822;2023-07-29T08:48:07;3.97;;;2.03;;
66603;SDS011;53460;39.612;8.822;2023-07-29T08:50:33;7.85;;;1.63;;
66603;SDS011;53460;39.612;8.822;2023-07-29T08:53:00;6.50;;;1.65;;
66603;SDS011;53460;39.612;8.822;2023-07-29T08:55:27;3.15;;;1.52;;
66603;SDS011;53460;39.612;8.822;2023-07-29T08:57:53;2.08;;;1.70;;
66603;SDS011;53460;39.612;8.822;2023-07-29T09:00:19;12.35;;;1.83;;
66603;SDS011;53460;39.612;8.822;2023-07-29T09:02:45;6.15;;;2.15;;
66603;SDS011;53460;39.612;8.822;2023-07-29T09:05:10;3.55;;;1.83;;
66603;SDS011;53460;39.612;8.822;2023-07-29T09:07:36;4.93;;;1.92;;
66603;SDS011;53460;39.612;8.822;2023-07-29T09:10:02;2.95;;;1.65;;
66603;SDS011;53460;39.612;8.822;2023-07-29T09:12:27;4.18;;;1.90;;
66603;SDS011;53460;39.612;8.822;2023-07-29T09:14:53;5.97;;;2.08;;
66603;SDS011;53460;39.612;8.822;2023-07-29T09:17:19;6.45;;;2.10;;
66603;SDS011;53460;39.612;8.822;2023-07-29T09:19:49;2.38;;;1.55;;
66603;SDS011;53460;39.612;8.822;2023-07-29T09:22:18;4.75;;;1.77;;
66603;SDS011;53460;39.612;8.822;2023-07-29T09:24:45;11.45;;;2.20;;
66603;SDS011;53460;39.612;8.822;2023-07-29T09:27:15;4.68;;;2.15;;
66603;SDS011;53460;39.612;8.822;2023-07-29T09:29:48;6.30;;;2.30;;
66603;SDS011;53460;39.612;8.822;2023-07-29T09:32:23;2.15;;;1.75;;
66603;SDS011;53460;39.612;8.822;2023-07-29T09:34:49;3.08;;;1.80;;
66603;SDS011;53460;39.612;8.822;2023-07-29T09:37:19;4.63;;;2.33;;
66603;SDS011;53460;39.612;8.822;2023-07-29T09:39:46;5.47;;;2.03;;
66603;SDS011;53460;39.612;8.822;2023-07-29T09:42:16;2.88;;;1.77;;
66603;SDS011;53460;39.612;8.822;2023-07-29T09:44:42;3.47;;;2.00;;
66603;SDS011;53460;39.612;8.822;2023-07-29T09:47:07;2.35;;;1.52;;
66603;SDS011;53460;39.612;8.822;2023-07-29T09:49:34;5.53;;;1.85;;
66603;SDS011;53460;39.612;8.822;2023-07-29T09:52:00;5.07;;;1.80;;
66603;SDS011;53460;39.612;8.822;2023-07-29T09:54:29;3.45;;;2.00;;
66603;SDS011;53460;39.612;8.822;2023-07-29T09:56:55;3.85;;;1.80;;
66603;SDS011;53460;39.612;8.822;2023-07-29T09:59:22;3.17;;;1.70;;
66603;SDS011;53460;39.612;8.822;2023-07-29T10:01:48;3.40;;;1.60;;
66603;SDS011;53460;39.612;8.822;2023-07-29T10:04:13;4.68;;;1.83;;
66603;SDS011;53460;39.612;8.822;2023-07-29T10:06:41;4.13;;;2.05;;
66603;SDS011;53460;39.612;8.822;2023-07-29T10:09:07;2.63;;;1.80;;
66603;SDS011;53460;39.612;8.822;2023-07-29T10:11:32;3.28;;;1.55;;
66603;SDS011;53460;39.612;8.822;2023-07-29T10:13:59;4.75;;;2.00;;
66603;SDS011;53460;39.612;8.822;2023-07-29T10:16:25;5.78;;;2.17;;
66603;SDS011;53460;39.612;8.822;2023-07-29T10:18:51;3.42;;;1.52;;
66603;SDS011;53460;39.612;8.822;2023-07-29T10:21:17;3.50;;;1.80;;
66603;SDS011;53460;39.612;8.822;2023-07-29T10:23:43;4.80;;;1.95;;
66603;SDS011;53460;39.612;8.822;2023-07-29T10:26:13;6.68;;;1.90;;
66603;SDS011;53460;39.612;8.822;2023-07-29T10:28:43;4.30;;;2.03;;
66603;SDS011;53460;39.612;8.822;2023-07-29T10:31:11;7.20;;;2.85;;
66603;SDS011;53460;39.612;8.822;2023-07-29T10:33:37;6.53;;;1.98;;
66603;SDS011;53460;39.612;8.822;2023-07-29T10:36:03;8.10;;;2.10;;
66603;SDS011;53460;39.612;8.822;2023-07-29T10:38:29;2.80;;;2.00;;
66603;SDS011;53460;39.612;8.822;2023-07-29T10:40:55;6.22;;;3.28;;
66603;SDS011;53460;39.612;8.822;2023-07-29T10:43:35;9.55;;;4.78;;
66603;SDS011;53460;39.612;8.822;2023-07-29T10:46:16;4.20;;;1.73;;
66603;SDS011;53460;39.612;8.822;2023-07-29T10:48:43;1.73;;;1.60;;
66603;SDS011;53460;39.612;8.822;2023-07-29T10:51:28;12.55;;;2.35;;
66603;SDS011;53460;39.612;8.822;2023-07-29T10:54:00;4.15;;;2.00;;
66603;SDS011;53460;39.612;8.822;2023-07-29T10:56:30;2.88;;;1.95;;
66603;SDS011;53460;39.612;8.822;2023-07-29T10:58:56;3.10;;;1.85;;
66603;SDS011;53460;39.612;8.822;2023-07-29T11:01:31;3.78;;;2.20;;
66603;SDS011;53460;39.612;8.822;2023-07-29T11:17:36;3.47;;;2.15;;
66603;SDS011;53460;39.612;8.822;2023-07-29T11:20:02;5.32;;;1.80;;
66603;SDS011;53460;39.612;8.822;2023-07-29T11:22:28;2.20;;;2.00;;
66603;SDS011;53460;39.612;8.822;2023-07-29T11:24:54;3.90;;;2.10;;
66603;SDS011;53460;39.612;8.822;2023-07-29T11:27:20;4.93;;;1.90;;
66603;SDS011;53460;39.612;8.822;2023-07-29T11:29:46;3.97;;;1.70;;
66603;SDS011;53460;39.612;8.822;2023-07-29T11:32:11;6.68;;;2.20;;
66603;SDS011;53460;39.612;8.822;2023-07-29T11:34:37;3.05;;;1.80;;
66603;SDS011;53460;39.612;8.822;2023-07-29T11:37:02;3.38;;;1.80;;
66603;SDS011;53460;39.612;8.822;2023-07-29T11:39:28;3.70;;;1.80;;
66603;SDS011;53460;39.612;8.822;2023-07-29T11:41:53;2.72;;;1.90;;
66603;SDS011;53460;39.612;8.822;2023-07-29T11:44:19;2.42;;;1.90;;
66603;SDS011;53460;39.612;8.822;2023-07-29T11:46:44;2.50;;;1.90;;
66603;SDS011;53460;39.612;8.822;2023-07-29T11:49:10;5.47;;;2.10;;
66603;SDS011;53460;39.612;8.822;2023-07-29T11:51:38;4.10;;;2.25;;
66603;SDS011;53460;39.612;8.822;2023-07-29T11:54:04;4.82;;;1.83;;
66603;SDS011;53460;39.612;8.822;2023-07-29T11:56:30;2.58;;;1.83;;
66603;SDS011;53460;39.612;8.822;2023-07-29T11:58:56;6.95;;;2.08;;
66603;SDS011;53460;39.612;8.822;2023-07-29T12:01:21;5.13;;;2.08;;
66603;SDS011;53460;39.612;8.822;2023-07-29T12:03:47;4.40;;;1.90;;
66603;SDS011;53460;39.612;8.822;2023-07-29T12:06:13;3.00;;;1.73;;
66603;SDS011;53460;39.612;8.822;2023-07-29T12:08:38;4.93;;;2.28;;
66603;SDS011;53460;39.612;8.822;2023-07-29T12:11:04;4.20;;;1.85;;
66603;SDS011;53460;39.612;8.822;2023-07-29T12:13:30;2.38;;;1.83;;
66603;SDS011;53460;39.612;8.822;2023-07-29T12:16:04;3.65;;;1.98;;
66603;SDS011;53460;39.612;8.822;2023-07-29T12:18:30;2.67;;;1.40;;
66603;SDS011;53460;39.612;8.822;2023-07-29T12:20:56;5.20;;;2.10;;
66603;SDS011;53460;39.612;8.822;2023-07-29T12:23:24;3.05;;;1.95;;
66603;SDS011;53460;39.612;8.822;2023-07-29T12:25:51;2.40;;;1.85;;
66603;SDS011;53460;39.612;8.822;2023-07-29T12:28:17;3.20;;;1.95;;
66603;SDS011;53460;39.612;8.822;2023-07-29T12:30:42;4.07;;;1.80;;
66603;SDS011;53460;39.612;8.822;2023-07-29T12:33:08;3.03;;;2.13;;
66603;SDS011;53460;39.612;8.822;2023-07-29T12:35:37;8.10;;;1.75;;
66603;SDS011;53460;39.612;8.822;2023-07-29T12:38:02;3.85;;;1.90;;
66603;SDS011;53460;39.612;8.822;2023-07-29T12:40:28;6.25;;;2.20;;
66603;SDS011;53460;39.612;8.822;2023-07-29T12:42:53;1.73;;;1.55;;
66603;SDS011;53460;39.612;8.822;2023-07-29T12:45:19;4.38;;;1.77;;
66603;SDS011;53460;39.612;8.822;2023-07-29T12:47:47;5.20;;;1.80;;
66603;SDS011;53460;39.612;8.822;2023-07-29T12:50:13;3.33;;;1.88;;
66603;SDS011;53460;39.612;8.822;2023-07-29T12:52:38;2.92;;;1.52;;
66603;SDS011;53460;39.612;8.822;2023-07-29T12:55:04;5.05;;;1.88;;
66603;SDS011;53460;39.612;8.822;2023-07-29T12:57:30;4.38;;;1.92;;
66603;SDS011;53460;39.612;8.822;2023-07-29T12:59:55;2.50;;;1.67;;
66603;SDS011;53460;39.612;8.822;2023-07-29T13:02:21;3.40;;;1.52;;
66603;SDS011;53460;39.612;8.822;2023-07-29T13:04:46;5.07;;;2.10;;
66603;SDS011;53460;39.612;8.822;2023-07-29T13:07:11;8.20;;;1.95;;
66603;SDS011;53460;39.612;8.822;2023-07-29T13:09:37;3.70;;;1.83;;
66603;SDS011;53460;39.612;8.822;2023-07-29T13:12:03;3.72;;;1.80;;
66603;SDS011;53460;39.612;8.822;2023-07-29T13:14:29;6.07;;;1.80;;
66603;SDS011;53460;39.612;8.822;2023-07-29T13:16:55;5.00;;;1.63;;
66603;SDS011;53460;39.612;8.822;2023-07-29T13:19:20;5.43;;;1.63;;
66603;SDS011;53460;39.612;8.822;2023-07-29T13:21:46;11.10;;;1.85;;
66603;SDS011;53460;39.612;8.822;2023-07-29T13:24:11;3.05;;;1.88;;
66603;SDS011;53460;39.612;8.822;2023-07-29T13:26:37;10.50;;;2.00;;
66603;SDS011;53460;39.612;8.822;2023-07-29T13:29:02;3.35;;;2.13;;
66603;SDS011;53460;39.612;8.822;2023-07-29T13:31:29;4.13;;;2.00;;
66603;SDS011;53460;39.612;8.822;2023-07-29T13:33:55;3.72;;;1.88;;
66603;SDS011;53460;39.612;8.822;2023-07-29T13:36:21;5.88;;;1.85;;
66603;SDS011;53460;39.612;8.822;2023-07-29T13:38:46;3.03;;;1.77;;
66603;SDS011;53460;39.612;8.822;2023-07-29T13:41:12;8.52;;;2.10;;
66603;SDS011;53460;39.612;8.822;2023-07-29T13:43:37;4.30;;;1.77;;
66603;SDS011;53460;39.612;8.822;2023-07-29T13:46:02;4.13;;;1.80;;
66603;SDS011;53460;39.612;8.822;2023-07-29T13:48:28;7.55;;;1.80;;
66603;SDS011;53460;39.612;8.822;2023-07-29T13:50:54;4.95;;;1.60;;
66603;SDS011;53460;39.612;8.822;2023-07-29T13:53:19;4.63;;;1.42;;
66603;SDS011;53460;39.612;8.822;2023-07-29T13:55:45;6.43;;;2.33;;
66603;SDS011;53460;39.612;8.822;2023-07-29T13:58:10;2.47;;;1.70;;
66603;SDS011;53460;39.612;8.822;2023-07-29T14:00:35;2.72;;;1.60;;
66603;SDS011;53460;39.612;8.822;2023-07-29T14:03:01;4.85;;;1.80;;
66603;SDS011;53460;39.612;8.822;2023-07-29T14:05:26;3.00;;;1.90;;
66603;SDS011;53460;39.612;8.822;2023-07-29T14:07:52;30.05;;;3.53;;
66603;SDS011;53460;39.612;8.822;2023-07-29T14:10:18;6.47;;;1.70;;
66603;SDS011;53460;39.612;8.822;2023-07-29T14:12:43;4.47;;;1.50;;
66603;SDS011;53460;39.612;8.822;2023-07-29T14:15:08;5.63;;;1.65;;
66603;SDS011;53460;39.612;8.822;2023-07-29T14:17:34;4.03;;;1.75;;
66603;SDS011;53460;39.612;8.822;2023-07-29T14:20:01;4.20;;;1.90;;
66603;SDS011;53460;39.612;8.822;2023-07-29T14:22:26;2.42;;;1.52;;
66603;SDS011;53460;39.612;8.822;2023-07-29T14:24:52;9.45;;;2.30;;
66603;SDS011;53460;39.612;8.822;2023-07-29T14:27:17;5.07;;;1.55;;
66603;SDS011;53460;39.612;8.822;2023-07-29T14:29:42;8.65;;;1.90;;
66603;SDS011;53460;39.612;8.822;2023-07-29T14:32:08;5.03;;;1.83;;
66603;SDS011;53460;39.612;8.822;2023-07-29T14:34:34;2.20;;;1.48;;
66603;SDS011;53460;39.612;8.822;2023-07-29T14:36:59;30.63;;;3.08;;
66603;SDS011;53460;39.612;8.822;2023-07-29T14:39:24;4.03;;;1.85;;
66603;SDS011;53460;39.612;8.822;2023-07-29T14:41:50;4.97;;;1.83;;
66603;SDS011;53460;39.612;8.822;2023-07-29T14:44:15;4.35;;;1.90;;
66603;SDS011;53460;39.612;8.822;2023-07-29T14:46:41;5.20;;;2.05;;
66603;SDS011;53460;39.612;8.822;2023-07-29T14:49:06;2.75;;;1.50;;
66603;SDS011;53460;39.612;8.822;2023-07-29T14:51:32;7.32;;;1.83;;
66603;SDS011;53460;39.612;8.822;2023-07-29T14:53:57;4.22;;;1.55;;
66603;SDS011;53460;39.612;8.822;2023-07-29T14:56:22;6.78;;;2.00;;
66603;SDS011;53460;39.612;8.822;2023-07-29T14:58:48;3.22;;;1.52;;
66603;SDS011;53460;39.612;8.822;2023-07-29T15:01:15;3.95;;;1.73;;
66603;SDS011;53460;39.612;8.822;2023-07-29T15:03:41;5.03;;;2.10;;